sensor_id;sensor_type;location;lat;lon;timestamp;pressure;altitude;pressure_sealevel;temperature
29701;BMP280;57917;51.380;-0.176;2023-06-14T00:03:34;101251.34;;;18.33
29701;BMP280;57917;51.380;-0.176;2023-06-14T00:09:21;101255.13;;;18.06
29701;BMP280;57917;51.380;-0.176;2023-06-14T00:15:08;101227.16;;;17.73
29701;BMP280;57917;51.380;-0.176;2023-06-14T00:20:57;101202.16;;;17.39
29701;BMP280;57917;51.380;-0.176;2023-06-14T00:26:43;101213.41;;;17.19
29701;BMP280;57917;51.380;-0.176;2023-06-14T00:32:30;101228.38;;;16.98
29701;BMP280;57917;51.380;-0.176;2023-06-14T00:38:17;101221.78;;;16.95
29701;BMP280;57917;51.380;-0.176;2023-06-14T00:44:04;101237.16;;;16.90
29701;BMP280;57917;51.380;-0.176;2023-06-14T00:49:51;101240.50;;;16.73
29701;BMP280;57917;51.380;-0.176;2023-06-14T00:55:41;101243.22;;;16.60
29701;BMP280;57917;51.380;-0.176;2023-06-14T01:01:29;101244.88;;;16.20
29701;BMP280;57917;51.380;-0.176;2023-06-14T01:13:21;101252.19;;;15.92
29701;BMP280;57917;51.380;-0.176;2023-06-14T01:19:11;101260.47;;;16.04
29701;BMP280;57917;51.380;-0.176;2023-06-14T01:25:00;101276.41;;;15.82
29701;BMP280;57917;51.380;-0.176;2023-06-14T01:30:50;101289.63;;;15.60
29701;BMP280;57917;51.380;-0.176;2023-06-14T01:36:41;101299.47;;;15.46
29701;BMP280;57917;51.380;-0.176;2023-06-14T01:42:30;101305.38;;;15.30
29701;BMP280;57917;51.380;-0.176;2023-06-14T01:48:19;101316.44;;;15.37
29701;BMP280;57917;51.380;-0.176;2023-06-14T01:54:07;101311.47;;;15.17
29701;BMP280;57917;51.380;-0.176;2023-06-14T01:59:57;101297.69;;;14.91
29701;BMP280;57917;51.380;-0.176;2023-06-14T02:05:44;101317.16;;;14.73
29701;BMP280;57917;51.380;-0.176;2023-06-14T02:11:31;101309.97;;;14.55
29701;BMP280;57917;51.380;-0.176;2023-06-14T02:17:18;101315.69;;;14.62
29701;BMP280;57917;51.380;-0.176;2023-06-14T02:23:07;101306.31;;;14.46
29701;BMP280;57917;51.380;-0.176;2023-06-14T02:28:55;101319.69;;;14.41
29701;BMP280;57917;51.380;-0.176;2023-06-14T02:34:42;101322.09;;;14.43
29701;BMP280;57917;51.380;-0.176;2023-06-14T02:40:29;101320.97;;;14.49
29701;BMP280;57917;51.380;-0.176;2023-06-14T02:46:19;101320.28;;;14.38
29701;BMP280;57917;51.380;-0.176;2023-06-14T02:52:08;101320.16;;;14.24
29701;BMP280;57917;51.380;-0.176;2023-06-14T02:57:55;101321.00;;;14.01
29701;BMP280;57917;51.380;-0.176;2023-06-14T03:03:44;101320.53;;;14.18
29701;BMP280;57917;51.380;-0.176;2023-06-14T03:09:37;101329.19;;;14.05
29701;BMP280;57917;51.380;-0.176;2023-06-14T03:15:27;101329.47;;;14.03
29701;BMP280;57917;51.380;-0.176;2023-06-14T03:21:16;101320.06;;;14.11
29701;BMP280;57917;51.380;-0.176;2023-06-14T03:27:05;101330.72;;;14.11
29701;BMP280;57917;51.380;-0.176;2023-06-14T03:32:52;101334.09;;;14.16
29701;BMP280;57917;51.380;-0.176;2023-06-14T03:38:44;101324.19;;;13.98
29701;BMP280;57917;51.380;-0.176;2023-06-14T03:44:34;101330.50;;;14.02
29701;BMP280;57917;51.380;-0.176;2023-06-14T03:50:22;101341.47;;;14.01
29701;BMP280;57917;51.380;-0.176;2023-06-14T03:56:10;101334.88;;;13.93
29701;BMP280;57917;51.380;-0.176;2023-06-14T04:02:02;101351.00;;;14.07
29701;BMP280;57917;51.380;-0.176;2023-06-14T04:07:49;101348.53;;;13.87
29701;BMP280;57917;51.380;-0.176;2023-06-14T04:13:37;101340.03;;;14.08
29701;BMP280;57917;51.380;-0.176;2023-06-14T04:19:26;101344.75;;;14.16
29701;BMP280;57917;51.380;-0.176;2023-06-14T04:25:13;101339.09;;;14.23
29701;BMP280;57917;51.380;-0.176;2023-06-14T04:31:03;101345.44;;;14.03
29701;BMP280;57917;51.380;-0.176;2023-06-14T04:36:55;101353.47;;;14.69
29701;BMP280;57917;51.380;-0.176;2023-06-14T04:42:49;101350.34;;;15.68
29701;BMP280;57917;51.380;-0.176;2023-06-14T04:48:39;101348.59;;;15.77
29701;BMP280;57917;51.380;-0.176;2023-06-14T04:54:29;101353.16;;;16.31
29701;BMP280;57917;51.380;-0.176;2023-06-14T05:00:20;101357.84;;;16.75
29701;BMP280;57917;51.380;-0.176;2023-06-14T05:06:08;101359.28;;;16.59
29701;BMP280;57917;51.380;-0.176;2023-06-14T05:11:55;101351.25;;;16.94
29701;BMP280;57917;51.380;-0.176;2023-06-14T05:17:42;101346.00;;;17.11
29701;BMP280;57917;51.380;-0.176;2023-06-14T05:23:29;101350.69;;;17.89
29701;BMP280;57917;51.380;-0.176;2023-06-14T05:29:19;101350.88;;;18.91
29701;BMP280;57917;51.380;-0.176;2023-06-14T05:35:06;101338.75;;;18.94
29701;BMP280;57917;51.380;-0.176;2023-06-14T05:40:53;101347.53;;;18.94
29701;BMP280;57917;51.380;-0.176;2023-06-14T05:46:40;101341.34;;;19.65
29701;BMP280;57917;51.380;-0.176;2023-06-14T05:52:27;101346.91;;;19.60
29701;BMP280;57917;51.380;-0.176;2023-06-14T05:58:15;101354.97;;;19.60
29701;BMP280;57917;51.380;-0.176;2023-06-14T06:04:02;101352.13;;;18.85
29701;BMP280;57917;51.380;-0.176;2023-06-14T06:09:50;101359.88;;;17.88
29701;BMP280;57917;51.380;-0.176;2023-06-14T06:15:37;101356.94;;;17.15
29701;BMP280;57917;51.380;-0.176;2023-06-14T06:21:24;101361.06;;;17.21
29701;BMP280;57917;51.380;-0.176;2023-06-14T06:27:12;101362.25;;;17.37
29701;BMP280;57917;51.380;-0.176;2023-06-14T06:32:59;101374.34;;;17.12
29701;BMP280;57917;51.380;-0.176;2023-06-14T06:38:46;101376.06;;;16.86
29701;BMP280;57917;51.380;-0.176;2023-06-14T06:44:33;101381.25;;;16.69
29701;BMP280;57917;51.380;-0.176;2023-06-14T06:50:20;101384.25;;;16.90
29701;BMP280;57917;51.380;-0.176;2023-06-14T06:56:12;101381.59;;;17.12
29701;BMP280;57917;51.380;-0.176;2023-06-14T07:02:00;101383.03;;;17.18
29701;BMP280;57917;51.380;-0.176;2023-06-14T07:07:49;101402.97;;;17.12
29701;BMP280;57917;51.380;-0.176;2023-06-14T07:13:35;101389.19;;;17.18
29701;BMP280;57917;51.380;-0.176;2023-06-14T07:19:22;101397.34;;;17.57
29701;BMP280;57917;51.380;-0.176;2023-06-14T07:25:11;101393.97;;;17.74
29701;BMP280;57917;51.380;-0.176;2023-06-14T07:31:01;101398.56;;;17.82
29701;BMP280;57917;51.380;-0.176;2023-06-14T07:36:59;101413.91;;;18.29
29701;BMP280;57917;51.380;-0.176;2023-06-14T07:42:46;101406.41;;;18.65
29701;BMP280;57917;51.380;-0.176;2023-06-14T07:48:34;101411.94;;;18.94
29701;BMP280;57917;51.380;-0.176;2023-06-14T07:54:21;101412.16;;;19.61
29701;BMP280;57917;51.380;-0.176;2023-06-14T08:00:13;101404.91;;;20.28
29701;BMP280;57917;51.380;-0.176;2023-06-14T08:06:02;101393.59;;;20.63
29701;BMP280;57917;51.380;-0.176;2023-06-14T08:11:49;101403.28;;;21.09
29701;BMP280;57917;51.380;-0.176;2023-06-14T08:17:39;101405.44;;;21.48
29701;BMP280;57917;51.380;-0.176;2023-06-14T08:23:27;101406.44;;;21.79
29701;BMP280;57917;51.380;-0.176;2023-06-14T08:29:16;101402.59;;;22.29
29701;BMP280;57917;51.380;-0.176;2023-06-14T08:35:04;101392.53;;;22.96
29701;BMP280;57917;51.380;-0.176;2023-06-14T08:40:52;101400.25;;;23.56
29701;BMP280;57917;51.380;-0.176;2023-06-14T08:46:47;101405.03;;;23.78
29701;BMP280;57917;51.380;-0.176;2023-06-14T08:52:37;101397.34;;;24.15
29701;BMP280;57917;51.380;-0.176;2023-06-14T08:58:33;101398.75;;;24.85
29701;BMP280;57917;51.380;-0.176;2023-06-14T09:04:21;101402.31;;;24.70
29701;BMP280;57917;51.380;-0.176;2023-06-14T09:10:13;101400.00;;;24.91
29701;BMP280;57917;51.380;-0.176;2023-06-14T09:16:03;101393.94;;;25.20
29701;BMP280;57917;51.380;-0.176;2023-06-14T09:21:54;101393.66;;;25.51
29701;BMP280;57917;51.380;-0.176;2023-06-14T09:27:42;101405.59;;;26.35
29701;BMP280;57917;51.380;-0.176;2023-06-14T09:33:30;101396.56;;;25.91
29701;BMP280;57917;51.380;-0.176;2023-06-14T09:39:17;101398.44;;;25.87
29701;BMP280;57917;51.380;-0.176;2023-06-14T09:45:05;101411.13;;;25.79
29701;BMP280;57917;51.380;-0.176;2023-06-14T09:50:55;101405.94;;;26.63
29701;BMP280;57917;51.380;-0.176;2023-06-14T09:56:45;101396.22;;;27.05
29701;BMP280;57917;51.380;-0.176;2023-06-14T10:02:37;101403.81;;;26.82
29701;BMP280;57917;51.380;-0.176;2023-06-14T10:08:25;101395.66;;;26.46
29701;BMP280;57917;51.380;-0.176;2023-06-14T10:14:13;101404.16;;;26.81
29701;BMP280;57917;51.380;-0.176;2023-06-14T10:20:14;101391.38;;;27.32
29701;BMP280;57917;51.380;-0.176;2023-06-14T10:26:04;101389.38;;;27.93
29701;BMP280;57917;51.380;-0.176;2023-06-14T10:31:56;101385.22;;;28.38
29701;BMP280;57917;51.380;-0.176;2023-06-14T10:37:46;101398.88;;;28.45
29701;BMP280;57917;51.380;-0.176;2023-06-14T10:43:33;101388.72;;;28.21
29701;BMP280;57917;51.380;-0.176;2023-06-14T10:49:43;101386.06;;;28.49
29701;BMP280;57917;51.380;-0.176;2023-06-14T10:55:34;101387.63;;;28.85
29701;BMP280;57917;51.380;-0.176;2023-06-14T11:14:04;101374.38;;;29.01
29701;BMP280;57917;51.380;-0.176;2023-06-14T11:20:07;101357.25;;;28.93
29701;BMP280;57917;51.380;-0.176;2023-06-14T11:25:56;101354.91;;;28.57
29701;BMP280;57917;51.380;-0.176;2023-06-14T11:31:45;101349.06;;;28.27
29701;BMP280;57917;51.380;-0.176;2023-06-14T11:37:34;101355.59;;;27.98
29701;BMP280;57917;51.380;-0.176;2023-06-14T11:43:26;101341.69;;;28.62
29701;BMP280;57917;51.380;-0.176;2023-06-14T11:49:14;101346.69;;;29.27
29701;BMP280;57917;51.380;-0.176;2023-06-14T11:55:02;101333.81;;;29.17
29701;BMP280;57917;51.380;-0.176;2023-06-14T12:00:53;101336.13;;;29.36
29701;BMP280;57917;51.380;-0.176;2023-06-14T12:06:39;101340.78;;;29.35
29701;BMP280;57917;51.380;-0.176;2023-06-14T12:12:27;101350.38;;;29.82
29701;BMP280;57917;51.380;-0.176;2023-06-14T12:18:15;101335.59;;;29.69
29701;BMP280;57917;51.380;-0.176;2023-06-14T12:24:03;101335.34;;;29.32
29701;BMP280;57917;51.380;-0.176;2023-06-14T12:30:03;101337.00;;;28.98
29701;BMP280;57917;51.380;-0.176;2023-06-14T12:35:51;101321.84;;;28.62
29701;BMP280;57917;51.380;-0.176;2023-06-14T12:41:37;101322.56;;;29.18
29701;BMP280;57917;51.380;-0.176;2023-06-14T12:47:24;101322.16;;;29.13
29701;BMP280;57917;51.380;-0.176;2023-06-14T12:53:11;101340.13;;;28.44
29701;BMP280;57917;51.380;-0.176;2023-06-14T12:58:58;101310.91;;;28.44
29701;BMP280;57917;51.380;-0.176;2023-06-14T13:04:45;101323.72;;;29.14
29701;BMP280;57917;51.380;-0.176;2023-06-14T13:10:35;101321.81;;;28.65
29701;BMP280;57917;51.380;-0.176;2023-06-14T13:16:28;101331.53;;;28.24
29701;BMP280;57917;51.380;-0.176;2023-06-14T13:22:15;101331.50;;;28.07
29701;BMP280;57917;51.380;-0.176;2023-06-14T13:28:06;101317.94;;;28.45
29701;BMP280;57917;51.380;-0.176;2023-06-14T13:33:53;101317.53;;;28.33
29701;BMP280;57917;51.380;-0.176;2023-06-14T13:39:43;101328.03;;;28.24
29701;BMP280;57917;51.380;-0.176;2023-06-14T13:45:30;101326.91;;;28.60
29701;BMP280;57917;51.380;-0.176;2023-06-14T13:51:17;101318.72;;;28.53
29701;BMP280;57917;51.380;-0.176;2023-06-14T13:57:05;101313.66;;;28.34
29701;BMP280;57917;51.380;-0.176;2023-06-14T14:02:53;101326.09;;;28.10
29701;BMP280;57917;51.380;-0.176;2023-06-14T14:08:42;101313.97;;;27.97
29701;BMP280;57917;51.380;-0.176;2023-06-14T14:14:32;101314.28;;;27.75
29701;BMP280;57917;51.380;-0.176;2023-06-14T14:20:19;101321.31;;;27.83
29701;BMP280;57917;51.380;-0.176;2023-06-14T14:26:06;101321.41;;;28.21
29701;BMP280;57917;51.380;-0.176;2023-06-14T14:31:53;101315.97;;;28.18
29701;BMP280;57917;51.380;-0.176;2023-06-14T14:37:40;101319.50;;;28.25
29701;BMP280;57917;51.380;-0.176;2023-06-14T14:43:27;101330.66;;;27.82
29701;BMP280;57917;51.380;-0.176;2023-06-14T14:49:17;101326.03;;;27.89
29701;BMP280;57917;51.380;-0.176;2023-06-14T14:55:04;101318.97;;;27.74
29701;BMP280;57917;51.380;-0.176;2023-06-14T15:00:51;101320.97;;;27.20
29701;BMP280;57917;51.380;-0.176;2023-06-14T15:06:38;101328.13;;;27.42
29701;BMP280;57917;51.380;-0.176;2023-06-14T15:12:28;101323.88;;;27.48
29701;BMP280;57917;51.380;-0.176;2023-06-14T15:18:16;101332.13;;;27.62
29701;BMP280;57917;51.380;-0.176;2023-06-14T15:24:04;101328.47;;;27.37
29701;BMP280;57917;51.380;-0.176;2023-06-14T15:29:51;101325.78;;;27.37
29701;BMP280;57917;51.380;-0.176;2023-06-14T15:35:38;101336.34;;;27.59
29701;BMP280;57917;51.380;-0.176;2023-06-14T15:41:27;101343.38;;;27.64
29701;BMP280;57917;51.380;-0.176;2023-06-14T15:47:19;101331.44;;;27.14
29701;BMP280;57917;51.380;-0.176;2023-06-14T15:53:06;101333.38;;;27.14
29701;BMP280;57917;51.380;-0.176;2023-06-14T15:58:54;101330.16;;;26.94
29701;BMP280;57917;51.380;-0.176;2023-06-14T16:04:41;101336.56;;;27.23
29701;BMP280;57917;51.380;-0.176;2023-06-14T16:10:30;101332.56;;;27.03
29701;BMP280;57917;51.380;-0.176;2023-06-14T16:16:17;101328.91;;;26.85
29701;BMP280;57917;51.380;-0.176;2023-06-14T16:22:05;101337.09;;;26.88
29701;BMP280;57917;51.380;-0.176;2023-06-14T16:27:54;101337.00;;;27.32
29701;BMP280;57917;51.380;-0.176;2023-06-14T16:33:41;101337.19;;;26.99
29701;BMP280;57917;51.380;-0.176;2023-06-14T16:39:29;101331.09;;;26.65
29701;BMP280;57917;51.380;-0.176;2023-06-14T16:45:16;101347.22;;;26.51
29701;BMP280;57917;51.380;-0.176;2023-06-14T16:51:07;101346.81;;;26.49
29701;BMP280;57917;51.380;-0.176;2023-06-14T16:56:54;101332.78;;;26.44
29701;BMP280;57917;51.380;-0.176;2023-06-14T17:02:42;101345.66;;;26.47
29701;BMP280;57917;51.380;-0.176;2023-06-14T17:08:32;101352.34;;;26.56
29701;BMP280;57917;51.380;-0.176;2023-06-14T17:14:19;101340.88;;;26.04
29701;BMP280;57917;51.380;-0.176;2023-06-14T17:20:08;101354.91;;;26.09
29701;BMP280;57917;51.380;-0.176;2023-06-14T17:25:55;101353.41;;;26.12
29701;BMP280;57917;51.380;-0.176;2023-06-14T17:31:42;101347.72;;;25.91
29701;BMP280;57917;51.380;-0.176;2023-06-14T17:37:29;101359.94;;;25.78
29701;BMP280;57917;51.380;-0.176;2023-06-14T17:43:17;101370.63;;;25.67
29701;BMP280;57917;51.380;-0.176;2023-06-14T17:49:07;101378.09;;;25.74
29701;BMP280;57917;51.380;-0.176;2023-06-14T17:54:54;101374.56;;;25.70
29701;BMP280;57917;51.380;-0.176;2023-06-14T18:00:41;101387.19;;;25.33
29701;BMP280;57917;51.380;-0.176;2023-06-14T18:06:28;101378.09;;;25.22
29701;BMP280;57917;51.380;-0.176;2023-06-14T18:12:17;101385.47;;;25.25
29701;BMP280;57917;51.380;-0.176;2023-06-14T18:18:04;101386.16;;;25.18
29701;BMP280;57917;51.380;-0.176;2023-06-14T18:23:55;101399.09;;;24.83
29701;BMP280;57917;51.380;-0.176;2023-06-14T18:29:43;101403.03;;;24.67
29701;BMP280;57917;51.380;-0.176;2023-06-14T18:35:33;101396.34;;;24.61
29701;BMP280;57917;51.380;-0.176;2023-06-14T18:41:20;101399.91;;;24.65
29701;BMP280;57917;51.380;-0.176;2023-06-14T18:47:07;101401.75;;;24.61
29701;BMP280;57917;51.380;-0.176;2023-06-14T18:52:55;101413.47;;;24.27
29701;BMP280;57917;51.380;-0.176;2023-06-14T18:58:43;101421.19;;;24.28
29701;BMP280;57917;51.380;-0.176;2023-06-14T19:04:31;101417.66;;;23.90
29701;BMP280;57917;51.380;-0.176;2023-06-14T19:10:20;101423.81;;;24.06
29701;BMP280;57917;51.380;-0.176;2023-06-14T19:16:10;101427.09;;;23.96
29701;BMP280;57917;51.380;-0.176;2023-06-14T19:21:58;101436.19;;;23.57
29701;BMP280;57917;51.380;-0.176;2023-06-14T19:27:56;101437.78;;;23.42
29701;BMP280;57917;51.380;-0.176;2023-06-14T19:33:45;101439.13;;;23.21
29701;BMP280;57917;51.380;-0.176;2023-06-14T19:39:33;101431.31;;;23.04
29701;BMP280;57917;51.380;-0.176;2023-06-14T19:45:24;101447.78;;;22.71
29701;BMP280;57917;51.380;-0.176;2023-06-14T19:51:11;101458.97;;;22.58
29701;BMP280;57917;51.380;-0.176;2023-06-14T19:56:58;101473.19;;;22.18
29701;BMP280;57917;51.380;-0.176;2023-06-14T20:02:45;101490.50;;;22.05
29701;BMP280;57917;51.380;-0.176;2023-06-14T20:08:33;101501.06;;;21.86
29701;BMP280;57917;51.380;-0.176;2023-06-14T20:14:20;101500.28;;;21.53
29701;BMP280;57917;51.380;-0.176;2023-06-14T20:20:08;101510.44;;;21.80
29701;BMP280;57917;51.380;-0.176;2023-06-14T20:25:55;101523.91;;;21.68
29701;BMP280;57917;51.380;-0.176;2023-06-14T20:31:42;101534.78;;;21.27
29701;BMP280;57917;51.380;-0.176;2023-06-14T20:37:33;101545.66;;;20.90
29701;BMP280;57917;51.380;-0.176;2023-06-14T20:43:19;101554.47;;;20.78
29701;BMP280;57917;51.380;-0.176;2023-06-14T20:49:10;101560.56;;;20.58
29701;BMP280;57917;51.380;-0.176;2023-06-14T20:55:02;101564.22;;;20.83
29701;BMP280;57917;51.380;-0.176;2023-06-14T21:00:49;101570.94;;;20.68
29701;BMP280;57917;51.380;-0.176;2023-06-14T21:06:37;101577.63;;;20.33
29701;BMP280;57917;51.380;-0.176;2023-06-14T21:12:25;101581.25;;;20.66
29701;BMP280;57917;51.380;-0.176;2023-06-14T21:18:13;101584.63;;;20.63
29701;BMP280;57917;51.380;-0.176;2023-06-14T21:24:04;101592.59;;;20.05
29701;BMP280;57917;51.380;-0.176;2023-06-14T21:29:57;101596.31;;;20.30
29701;BMP280;57917;51.380;-0.176;2023-06-14T21:35:45;101604.22;;;20.35
29701;BMP280;57917;51.380;-0.176;2023-06-14T21:41:32;101606.13;;;20.26
29701;BMP280;57917;51.380;-0.176;2023-06-14T21:47:27;101611.75;;;19.78
29701;BMP280;57917;51.380;-0.176;2023-06-14T21:53:14;101618.84;;;19.74
29701;BMP280;57917;51.380;-0.176;2023-06-14T21:59:01;101624.22;;;19.74
29701;BMP280;57917;51.380;-0.176;2023-06-14T22:04:57;101622.47;;;19.70
29701;BMP280;57917;51.380;-0.176;2023-06-14T22:10:55;101616.78;;;19.88
29701;BMP280;57917;51.380;-0.176;2023-06-14T22:16:43;101621.00;;;19.98
29701;BMP280;57917;51.380;-0.176;2023-06-14T22:22:31;101618.53;;;19.84
29701;BMP280;57917;51.380;-0.176;2023-06-14T22:28:22;101626.44;;;19.64
29701;BMP280;57917;51.380;-0.176;2023-06-14T22:34:11;101631.50;;;19.74
29701;BMP280;57917;51.380;-0.176;2023-06-14T22:39:59;101623.84;;;19.16
29701;BMP280;57917;51.380;-0.176;2023-06-14T22:45:46;101623.50;;;19.09
29701;BMP280;57917;51.380;-0.176;2023-06-14T22:51:34;101630.22;;;19.29
29701;BMP280;57917;51.380;-0.176;2023-06-14T22:57:21;101633.00;;;19.15
29701;BMP280;57917;51.380;-0.176;2023-06-14T23:03:09;101641.34;;;19.05
29701;BMP280;57917;51.380;-0.176;2023-06-14T23:08:56;101647.78;;;18.96
29701;BMP280;57917;51.380;-0.176;2023-06-14T23:14:46;101642.28;;;19.09
29701;BMP280;57917;51.380;-0.176;2023-06-14T23:20:35;101648.91;;;19.03
29701;BMP280;57917;51.380;-0.176;2023-06-14T23:26:23;101640.38;;;19.01
29701;BMP280;57917;51.380;-0.176;2023-06-14T23:32:14;101644.19;;;19.17
29701;BMP280;57917;51.380;-0.176;2023-06-14T23:38:03;101637.31;;;18.55
29701;BMP280;57917;51.380;-0.176;2023-06-14T23:43:52;101641.06;;;18.76
29701;BMP280;57917;51.380;-0.176;2023-06-14T23:49:39;101645.63;;;18.45
29701;BMP280;57917;51.380;-0.176;2023-06-14T23:55:26;101653.97;;;18.65
